sensor_id;sensor_type;location;lat;lon;timestamp;temperature;humidity
4518;DHT22;2271;49.464;11.070;2022-10-26T00:02:17;12.40;99.90
4518;DHT22;2271;49.464;11.070;2022-10-26T00:04:43;12.40;99.90
4518;DHT22;2271;49.464;11.070;2022-10-26T00:07:08;12.40;99.90
4518;DHT22;2271;49.464;11.070;2022-10-26T00:09:34;12.40;99.90
4518;DHT22;2271;49.464;11.070;2022-10-26T00:12:00;12.30;99.90
4518;DHT22;2271;49.464;11.070;2022-10-26T00:14:26;12.30;99.90
4518;DHT22;2271;49.464;11.070;2022-10-26T00:16:52;12.30;99.90
4518;DHT22;2271;49.464;11.070;2022-10-26T00:19:17;12.30;99.90
4518;DHT22;2271;49.464;11.070;2022-10-26T00:21:43;12.40;99.90
4518;DHT22;2271;49.464;11.070;2022-10-26T00:24:10;12.40;99.90
4518;DHT22;2271;49.464;11.070;2022-10-26T00:26:36;12.40;99.90
4518;DHT22;2271;49.464;11.070;2022-10-26T00:29:02;12.40;99.90
4518;DHT22;2271;49.464;11.070;2022-10-26T00:31:28;12.40;99.90
4518;DHT22;2271;49.464;11.070;2022-10-26T00:33:54;12.40;99.90
4518;DHT22;2271;49.464;11.070;2022-10-26T00:36:20;12.40;99.90
4518;DHT22;2271;49.464;11.070;2022-10-26T00:38:53;12.40;99.90
4518;DHT22;2271;49.464;11.070;2022-10-26T00:41:24;12.50;99.90
4518;DHT22;2271;49.464;11.070;2022-10-26T00:43:51;12.50;99.90
4518;DHT22;2271;49.464;11.070;2022-10-26T00:46:24;12.50;99.90
4518;DHT22;2271;49.464;11.070;2022-10-26T00:49:12;12.50;99.90
4518;DHT22;2271;49.464;11.070;2022-10-26T00:51:42;12.50;99.90
4518;DHT22;2271;49.464;11.070;2022-10-26T00:54:16;12.50;99.90
4518;DHT22;2271;49.464;11.070;2022-10-26T00:56:43;12.50;99.90
4518;DHT22;2271;49.464;11.070;2022-10-26T00:59:11;12.50;99.90
4518;DHT22;2271;49.464;11.070;2022-10-26T01:01:41;12.50;99.90
4518;DHT22;2271;49.464;11.070;2022-10-26T01:04:08;12.50;99.90
4518;DHT22;2271;49.464;11.070;2022-10-26T01:06:35;12.60;99.90
4518;DHT22;2271;49.464;11.070;2022-10-26T01:09:03;12.60;99.90
4518;DHT22;2271;49.464;11.070;2022-10-26T01:11:28;12.50;99.90
4518;DHT22;2271;49.464;11.070;2022-10-26T01:13:55;12.50;99.90
4518;DHT22;2271;49.464;11.070;2022-10-26T01:22:33;12.50;99.90
4518;DHT22;2271;49.464;11.070;2022-10-26T01:27:57;12.50;99.90
4518;DHT22;2271;49.464;11.070;2022-10-26T01:30:41;12.50;99.90
4518;DHT22;2271;49.464;11.070;2022-10-26T01:43:45;12.60;99.90
4518;DHT22;2271;49.464;11.070;2022-10-26T01:46:15;12.50;99.90
4518;DHT22;2271;49.464;11.070;2022-10-26T01:48:43;12.50;99.90
4518;DHT22;2271;49.464;11.070;2022-10-26T01:51:11;12.50;99.90
4518;DHT22;2271;49.464;11.070;2022-10-26T01:53:44;12.50;99.90
4518;DHT22;2271;49.464;11.070;2022-10-26T01:56:15;12.50;99.90
4518;DHT22;2271;49.464;11.070;2022-10-26T02:11:56;12.50;99.90
4518;DHT22;2271;49.464;11.070;2022-10-26T02:14:35;12.50;99.90
4518;DHT22;2271;49.464;11.070;2022-10-26T02:19:31;12.60;99.90
4518;DHT22;2271;49.464;11.070;2022-10-26T02:24:47;12.70;99.90
4518;DHT22;2271;49.464;11.070;2022-10-26T02:27:19;12.70;99.90
4518;DHT22;2271;49.464;11.070;2022-10-26T02:29:45;12.70;99.90
4518;DHT22;2271;49.464;11.070;2022-10-26T02:32:13;12.70;99.90
4518;DHT22;2271;49.464;11.070;2022-10-26T02:34:41;12.70;99.90
4518;DHT22;2271;49.464;11.070;2022-10-26T02:37:08;12.70;99.90
4518;DHT22;2271;49.464;11.070;2022-10-26T02:39:34;12.70;99.90
4518;DHT22;2271;49.464;11.070;2022-10-26T02:42:03;12.70;99.90
4518;DHT22;2271;49.464;11.070;2022-10-26T02:44:54;12.70;99.90
4518;DHT22;2271;49.464;11.070;2022-10-26T02:47:23;12.70;99.90
4518;DHT22;2271;49.464;11.070;2022-10-26T02:49:51;12.70;99.90
4518;DHT22;2271;49.464;11.070;2022-10-26T02:52:28;12.70;99.90
4518;DHT22;2271;49.464;11.070;2022-10-26T02:55:32;12.70;99.90
4518;DHT22;2271;49.464;11.070;2022-10-26T02:58:07;12.70;99.90
4518;DHT22;2271;49.464;11.070;2022-10-26T03:00:33;12.70;99.90
4518;DHT22;2271;49.464;11.070;2022-10-26T03:02:59;12.70;99.90
4518;DHT22;2271;49.464;11.070;2022-10-26T03:05:30;12.70;99.90
4518;DHT22;2271;49.464;11.070;2022-10-26T03:08:01;12.70;99.90
4518;DHT22;2271;49.464;11.070;2022-10-26T03:10:27;12.70;99.90
4518;DHT22;2271;49.464;11.070;2022-10-26T03:12:53;12.70;99.90
4518;DHT22;2271;49.464;11.070;2022-10-26T03:15:19;12.70;99.90
4518;DHT22;2271;49.464;11.070;2022-10-26T03:17:45;12.70;99.90
4518;DHT22;2271;49.464;11.070;2022-10-26T03:20:11;12.70;99.90
4518;DHT22;2271;49.464;11.070;2022-10-26T03:22:36;12.70;99.90
4518;DHT22;2271;49.464;11.070;2022-10-26T03:25:02;12.70;99.90
4518;DHT22;2271;49.464;11.070;2022-10-26T03:27:28;12.70;99.90
4518;DHT22;2271;49.464;11.070;2022-10-26T03:29:54;12.70;99.90
4518;DHT22;2271;49.464;11.070;2022-10-26T03:32:19;12.70;99.90
4518;DHT22;2271;49.464;11.070;2022-10-26T03:34:45;12.70;99.90
4518;DHT22;2271;49.464;11.070;2022-10-26T03:37:11;12.70;99.90
4518;DHT22;2271;49.464;11.070;2022-10-26T03:39:36;12.70;99.90
4518;DHT22;2271;49.464;11.070;2022-10-26T03:42:02;12.70;99.90
4518;DHT22;2271;49.464;11.070;2022-10-26T03:44:28;12.70;99.90
4518;DHT22;2271;49.464;11.070;2022-10-26T03:46:53;12.70;99.90
4518;DHT22;2271;49.464;11.070;2022-10-26T03:49:19;12.80;99.90
4518;DHT22;2271;49.464;11.070;2022-10-26T03:51:44;12.80;99.90
4518;DHT22;2271;49.464;11.070;2022-10-26T03:54:10;12.80;99.90
4518;DHT22;2271;49.464;11.070;2022-10-26T03:56:35;12.80;99.90
4518;DHT22;2271;49.464;11.070;2022-10-26T03:59:01;12.80;99.90
4518;DHT22;2271;49.464;11.070;2022-10-26T04:01:27;12.80;99.90
4518;DHT22;2271;49.464;11.070;2022-10-26T04:03:52;12.80;99.90
4518;DHT22;2271;49.464;11.070;2022-10-26T04:06:18;12.80;99.90
4518;DHT22;2271;49.464;11.070;2022-10-26T04:08:43;12.80;99.90
4518;DHT22;2271;49.464;11.070;2022-10-26T04:11:09;12.80;99.90
4518;DHT22;2271;49.464;11.070;2022-10-26T04:13:34;12.70;99.90
4518;DHT22;2271;49.464;11.070;2022-10-26T04:16:00;12.70;99.90
4518;DHT22;2271;49.464;11.070;2022-10-26T04:18:26;12.70;99.90
4518;DHT22;2271;49.464;11.070;2022-10-26T04:20:51;12.80;99.90
4518;DHT22;2271;49.464;11.070;2022-10-26T04:23:18;12.80;99.90
4518;DHT22;2271;49.464;11.070;2022-10-26T04:25:44;12.80;99.90
4518;DHT22;2271;49.464;11.070;2022-10-26T04:28:11;12.70;99.90
4518;DHT22;2271;49.464;11.070;2022-10-26T04:30:38;12.80;99.90
4518;DHT22;2271;49.464;11.070;2022-10-26T04:33:05;12.80;99.90
4518;DHT22;2271;49.464;11.070;2022-10-26T04:35:31;12.80;99.90
4518;DHT22;2271;49.464;11.070;2022-10-26T04:38:02;12.80;99.90
4518;DHT22;2271;49.464;11.070;2022-10-26T04:40:29;12.80;99.90
4518;DHT22;2271;49.464;11.070;2022-10-26T04:42:55;12.80;99.90
4518;DHT22;2271;49.464;11.070;2022-10-26T04:45:21;12.90;99.90
4518;DHT22;2271;49.464;11.070;2022-10-26T04:47:47;12.90;99.90
4518;DHT22;2271;49.464;11.070;2022-10-26T04:50:13;12.90;99.90
4518;DHT22;2271;49.464;11.070;2022-10-26T04:52:39;12.90;99.90
4518;DHT22;2271;49.464;11.070;2022-10-26T04:55:06;12.80;99.90
4518;DHT22;2271;49.464;11.070;2022-10-26T04:57:32;12.80;99.90
4518;DHT22;2271;49.464;11.070;2022-10-26T04:59:59;12.80;99.90
4518;DHT22;2271;49.464;11.070;2022-10-26T05:02:26;12.70;99.90
4518;DHT22;2271;49.464;11.070;2022-10-26T05:04:51;12.70;99.90
4518;DHT22;2271;49.464;11.070;2022-10-26T05:07:17;12.70;99.90
4518;DHT22;2271;49.464;11.070;2022-10-26T05:09:43;12.60;99.90
4518;DHT22;2271;49.464;11.070;2022-10-26T05:12:08;12.60;99.90
4518;DHT22;2271;49.464;11.070;2022-10-26T05:14:34;12.70;99.90
4518;DHT22;2271;49.464;11.070;2022-10-26T05:16:59;12.60;99.90
4518;DHT22;2271;49.464;11.070;2022-10-26T05:19:25;12.70;99.90
4518;DHT22;2271;49.464;11.070;2022-10-26T05:21:51;12.70;99.90
4518;DHT22;2271;49.464;11.070;2022-10-26T05:24:18;12.70;99.90
4518;DHT22;2271;49.464;11.070;2022-10-26T05:26:43;12.70;99.90
4518;DHT22;2271;49.464;11.070;2022-10-26T05:29:09;12.70;99.90
4518;DHT22;2271;49.464;11.070;2022-10-26T05:31:35;12.70;99.90
4518;DHT22;2271;49.464;11.070;2022-10-26T05:34:00;12.70;99.90
4518;DHT22;2271;49.464;11.070;2022-10-26T05:36:26;12.70;99.90
4518;DHT22;2271;49.464;11.070;2022-10-26T05:38:52;12.70;99.90
4518;DHT22;2271;49.464;11.070;2022-10-26T05:41:17;12.80;99.90
4518;DHT22;2271;49.464;11.070;2022-10-26T05:43:46;12.80;99.90
4518;DHT22;2271;49.464;11.070;2022-10-26T05:46:11;12.70;99.90
4518;DHT22;2271;49.464;11.070;2022-10-26T05:48:37;12.80;99.90
4518;DHT22;2271;49.464;11.070;2022-10-26T05:51:03;12.80;99.90
4518;DHT22;2271;49.464;11.070;2022-10-26T05:53:29;12.80;99.90
4518;DHT22;2271;49.464;11.070;2022-10-26T05:55:55;12.80;99.90
4518;DHT22;2271;49.464;11.070;2022-10-26T05:58:21;12.80;99.90
4518;DHT22;2271;49.464;11.070;2022-10-26T06:03:34;12.80;99.90
4518;DHT22;2271;49.464;11.070;2022-10-26T06:06:03;12.70;99.90
4518;DHT22;2271;49.464;11.070;2022-10-26T06:08:29;12.70;99.90
4518;DHT22;2271;49.464;11.070;2022-10-26T06:10:57;12.70;99.90
4518;DHT22;2271;49.464;11.070;2022-10-26T06:13:24;12.70;99.90
4518;DHT22;2271;49.464;11.070;2022-10-26T06:18:43;12.70;99.90
4518;DHT22;2271;49.464;11.070;2022-10-26T06:24:11;12.70;99.90
4518;DHT22;2271;49.464;11.070;2022-10-26T06:29:45;12.80;99.90
4518;DHT22;2271;49.464;11.070;2022-10-26T06:32:15;12.80;99.90
4518;DHT22;2271;49.464;11.070;2022-10-26T06:34:45;12.90;99.90
4518;DHT22;2271;49.464;11.070;2022-10-26T06:37:13;13.00;99.90
4518;DHT22;2271;49.464;11.070;2022-10-26T06:39:43;13.00;99.90
4518;DHT22;2271;49.464;11.070;2022-10-26T06:42:10;13.00;99.90
4518;DHT22;2271;49.464;11.070;2022-10-26T06:44:36;13.00;99.90
4518;DHT22;2271;49.464;11.070;2022-10-26T06:47:06;13.10;99.90
4518;DHT22;2271;49.464;11.070;2022-10-26T06:54:47;13.20;99.90
4518;DHT22;2271;49.464;11.070;2022-10-26T06:57:15;13.20;99.90
4518;DHT22;2271;49.464;11.070;2022-10-26T07:02:12;13.20;99.90
4518;DHT22;2271;49.464;11.070;2022-10-26T07:04:39;13.30;99.90
4518;DHT22;2271;49.464;11.070;2022-10-26T07:07:05;13.30;99.90
4518;DHT22;2271;49.464;11.070;2022-10-26T07:09:30;13.20;99.90
4518;DHT22;2271;49.464;11.070;2022-10-26T07:11:56;13.30;99.90
4518;DHT22;2271;49.464;11.070;2022-10-26T07:14:21;13.30;99.90
4518;DHT22;2271;49.464;11.070;2022-10-26T07:16:47;13.30;99.90
4518;DHT22;2271;49.464;11.070;2022-10-26T07:19:12;13.30;99.90
4518;DHT22;2271;49.464;11.070;2022-10-26T07:21:38;13.20;99.90
4518;DHT22;2271;49.464;11.070;2022-10-26T07:24:04;13.20;99.90
4518;DHT22;2271;49.464;11.070;2022-10-26T07:26:29;13.30;99.90
4518;DHT22;2271;49.464;11.070;2022-10-26T07:28:55;13.30;99.90
4518;DHT22;2271;49.464;11.070;2022-10-26T07:31:21;13.40;99.90
4518;DHT22;2271;49.464;11.070;2022-10-26T07:33:46;13.40;99.90
4518;DHT22;2271;49.464;11.070;2022-10-26T07:36:12;13.40;99.90
4518;DHT22;2271;49.464;11.070;2022-10-26T07:38:38;13.30;99.90
4518;DHT22;2271;49.464;11.070;2022-10-26T07:41:04;13.30;99.90
4518;DHT22;2271;49.464;11.070;2022-10-26T07:43:30;13.30;99.90
4518;DHT22;2271;49.464;11.070;2022-10-26T07:45:56;13.30;99.90
4518;DHT22;2271;49.464;11.070;2022-10-26T07:48:21;13.30;99.90
4518;DHT22;2271;49.464;11.070;2022-10-26T07:50:47;13.30;99.90
4518;DHT22;2271;49.464;11.070;2022-10-26T07:53:13;13.40;99.90
4518;DHT22;2271;49.464;11.070;2022-10-26T07:55:39;13.40;99.90
4518;DHT22;2271;49.464;11.070;2022-10-26T07:58:04;13.40;99.90
4518;DHT22;2271;49.464;11.070;2022-10-26T08:00:30;13.50;99.90
4518;DHT22;2271;49.464;11.070;2022-10-26T08:02:56;13.50;99.90
4518;DHT22;2271;49.464;11.070;2022-10-26T08:05:22;13.60;99.90
4518;DHT22;2271;49.464;11.070;2022-10-26T08:07:48;13.60;99.90
4518;DHT22;2271;49.464;11.070;2022-10-26T08:10:14;13.60;99.90
4518;DHT22;2271;49.464;11.070;2022-10-26T08:12:41;13.60;99.90
4518;DHT22;2271;49.464;11.070;2022-10-26T08:15:07;13.60;99.90
4518;DHT22;2271;49.464;11.070;2022-10-26T08:17:33;13.60;99.90
4518;DHT22;2271;49.464;11.070;2022-10-26T08:20:00;13.70;99.90
4518;DHT22;2271;49.464;11.070;2022-10-26T08:22:28;13.70;99.90
4518;DHT22;2271;49.464;11.070;2022-10-26T08:24:55;13.70;99.90
4518;DHT22;2271;49.464;11.070;2022-10-26T08:27:20;13.70;99.90
4518;DHT22;2271;49.464;11.070;2022-10-26T08:29:46;13.80;99.90
4518;DHT22;2271;49.464;11.070;2022-10-26T08:32:11;13.80;99.90
4518;DHT22;2271;49.464;11.070;2022-10-26T08:34:37;13.80;99.90
4518;DHT22;2271;49.464;11.070;2022-10-26T08:37:02;13.80;99.90
4518;DHT22;2271;49.464;11.070;2022-10-26T08:39:28;13.90;99.90
4518;DHT22;2271;49.464;11.070;2022-10-26T08:42:36;14.00;99.90
4518;DHT22;2271;49.464;11.070;2022-10-26T08:45:11;14.10;99.90
4518;DHT22;2271;49.464;11.070;2022-10-26T08:47:46;14.10;99.90
4518;DHT22;2271;49.464;11.070;2022-10-26T08:50:26;14.20;99.90
4518;DHT22;2271;49.464;11.070;2022-10-26T08:55:43;14.40;99.90
4518;DHT22;2271;49.464;11.070;2022-10-26T08:58:14;14.40;99.90
4518;DHT22;2271;49.464;11.070;2022-10-26T09:00:40;14.50;99.90
4518;DHT22;2271;49.464;11.070;2022-10-26T09:03:13;14.50;99.90
4518;DHT22;2271;49.464;11.070;2022-10-26T09:06:18;14.50;99.90
4518;DHT22;2271;49.464;11.070;2022-10-26T09:09:15;14.50;99.90
4518;DHT22;2271;49.464;11.070;2022-10-26T09:14:47;14.60;99.90
4518;DHT22;2271;49.464;11.070;2022-10-26T09:22:52;14.60;99.90
4518;DHT22;2271;49.464;11.070;2022-10-26T09:25:22;14.70;99.90
4518;DHT22;2271;49.464;11.070;2022-10-26T09:27:59;14.70;99.90
4518;DHT22;2271;49.464;11.070;2022-10-26T09:30:25;14.70;99.90
4518;DHT22;2271;49.464;11.070;2022-10-26T09:32:58;14.70;99.90
4518;DHT22;2271;49.464;11.070;2022-10-26T09:38:33;14.80;99.90
4518;DHT22;2271;49.464;11.070;2022-10-26T09:41:02;14.90;99.90
4518;DHT22;2271;49.464;11.070;2022-10-26T09:43:49;15.00;99.90
4518;DHT22;2271;49.464;11.070;2022-10-26T09:46:22;15.10;99.90
4518;DHT22;2271;49.464;11.070;2022-10-26T09:48:58;15.10;99.90
4518;DHT22;2271;49.464;11.070;2022-10-26T09:51:26;15.20;99.90
4518;DHT22;2271;49.464;11.070;2022-10-26T09:53:54;15.30;99.90
4518;DHT22;2271;49.464;11.070;2022-10-26T09:56:20;15.30;99.90
4518;DHT22;2271;49.464;11.070;2022-10-26T09:58:55;15.30;99.90
4518;DHT22;2271;49.464;11.070;2022-10-26T10:06:43;15.40;99.90
4518;DHT22;2271;49.464;11.070;2022-10-26T10:12:00;15.60;99.90
4518;DHT22;2271;49.464;11.070;2022-10-26T10:14:29;15.60;99.90
4518;DHT22;2271;49.464;11.070;2022-10-26T10:16:58;15.70;99.90
4518;DHT22;2271;49.464;11.070;2022-10-26T10:19:32;15.80;99.90
4518;DHT22;2271;49.464;11.070;2022-10-26T10:22:00;15.80;99.90
4518;DHT22;2271;49.464;11.070;2022-10-26T10:24:27;15.70;99.90
4518;DHT22;2271;49.464;11.070;2022-10-26T10:29:45;15.70;99.90
4518;DHT22;2271;49.464;11.070;2022-10-26T10:32:19;15.70;99.90
4518;DHT22;2271;49.464;11.070;2022-10-26T10:34:45;15.70;99.90
4518;DHT22;2271;49.464;11.070;2022-10-26T10:37:32;15.70;99.90
4518;DHT22;2271;49.464;11.070;2022-10-26T10:40:06;15.70;99.90
4518;DHT22;2271;49.464;11.070;2022-10-26T10:42:35;15.80;99.90
4518;DHT22;2271;49.464;11.070;2022-10-26T10:45:02;15.80;99.90
4518;DHT22;2271;49.464;11.070;2022-10-26T10:47:30;15.70;99.90
4518;DHT22;2271;49.464;11.070;2022-10-26T10:50:17;15.80;99.90
4518;DHT22;2271;49.464;11.070;2022-10-26T10:52:44;15.80;99.90
4518;DHT22;2271;49.464;11.070;2022-10-26T11:00:35;15.70;99.90
4518;DHT22;2271;49.464;11.070;2022-10-26T11:08:16;15.90;99.90
4518;DHT22;2271;49.464;11.070;2022-10-26T11:11:01;15.90;99.90
4518;DHT22;2271;49.464;11.070;2022-10-26T11:13:40;15.90;99.90
4518;DHT22;2271;49.464;11.070;2022-10-26T11:16:15;16.00;99.90
4518;DHT22;2271;49.464;11.070;2022-10-26T11:18:55;16.00;99.90
4518;DHT22;2271;49.464;11.070;2022-10-26T11:21:25;16.00;99.90
4518;DHT22;2271;49.464;11.070;2022-10-26T11:24:17;16.10;99.90
4518;DHT22;2271;49.464;11.070;2022-10-26T11:26:58;16.10;99.90
4518;DHT22;2271;49.464;11.070;2022-10-26T11:32:12;16.00;99.90
4518;DHT22;2271;49.464;11.070;2022-10-26T11:34:49;16.00;99.90
4518;DHT22;2271;49.464;11.070;2022-10-26T11:37:29;16.00;99.90
4518;DHT22;2271;49.464;11.070;2022-10-26T11:40:19;16.00;99.90
4518;DHT22;2271;49.464;11.070;2022-10-26T11:43:29;16.00;99.90
4518;DHT22;2271;49.464;11.070;2022-10-26T11:51:49;16.00;99.90
4518;DHT22;2271;49.464;11.070;2022-10-26T11:54:40;16.10;99.90
4518;DHT22;2271;49.464;11.070;2022-10-26T11:57:08;16.10;99.90
4518;DHT22;2271;49.464;11.070;2022-10-26T11:59:38;16.20;99.90
4518;DHT22;2271;49.464;11.070;2022-10-26T12:02:14;16.30;99.90
4518;DHT22;2271;49.464;11.070;2022-10-26T12:04:42;16.40;99.90
4518;DHT22;2271;49.464;11.070;2022-10-26T12:07:26;16.50;99.90
4518;DHT22;2271;49.464;11.070;2022-10-26T12:09:53;16.50;99.90
4518;DHT22;2271;49.464;11.070;2022-10-26T12:12:44;16.60;99.90
4518;DHT22;2271;49.464;11.070;2022-10-26T12:15:17;16.70;99.90
4518;DHT22;2271;49.464;11.070;2022-10-26T12:17:51;16.80;99.90
4518;DHT22;2271;49.464;11.070;2022-10-26T12:23:10;16.80;99.90
4518;DHT22;2271;49.464;11.070;2022-10-26T12:25:37;16.80;99.90
4518;DHT22;2271;49.464;11.070;2022-10-26T12:28:02;16.80;99.90
4518;DHT22;2271;49.464;11.070;2022-10-26T12:30:33;16.80;99.90
4518;DHT22;2271;49.464;11.070;2022-10-26T12:32:59;16.70;99.90
4518;DHT22;2271;49.464;11.070;2022-10-26T12:35:41;16.70;99.90
4518;DHT22;2271;49.464;11.070;2022-10-26T12:43:34;16.70;99.90
4518;DHT22;2271;49.464;11.070;2022-10-26T12:48:49;16.70;99.90
4518;DHT22;2271;49.464;11.070;2022-10-26T12:56:54;16.80;99.90
4518;DHT22;2271;49.464;11.070;2022-10-26T13:04:57;17.30;99.90
4518;DHT22;2271;49.464;11.070;2022-10-26T13:07:36;17.60;99.90
4518;DHT22;2271;49.464;11.070;2022-10-26T13:10:23;17.80;99.90
4518;DHT22;2271;49.464;11.070;2022-10-26T13:12:51;17.80;99.90
4518;DHT22;2271;49.464;11.070;2022-10-26T13:15:23;17.70;99.90
4518;DHT22;2271;49.464;11.070;2022-10-26T13:18:14;17.70;99.90
4518;DHT22;2271;49.464;11.070;2022-10-26T13:21:03;17.80;99.90
4518;DHT22;2271;49.464;11.070;2022-10-26T13:23:34;17.80;99.90
4518;DHT22;2271;49.464;11.070;2022-10-26T13:26:12;17.80;99.90
4518;DHT22;2271;49.464;11.070;2022-10-26T13:33:45;18.30;99.90
4518;DHT22;2271;49.464;11.070;2022-10-26T13:36:30;18.30;99.90
4518;DHT22;2271;49.464;11.070;2022-10-26T13:38:59;18.40;99.90
4518;DHT22;2271;49.464;11.070;2022-10-26T13:41:34;18.50;99.90
4518;DHT22;2271;49.464;11.070;2022-10-26T13:44:04;18.40;99.90
4518;DHT22;2271;49.464;11.070;2022-10-26T13:46:33;18.30;99.90
4518;DHT22;2271;49.464;11.070;2022-10-26T13:49:08;18.30;99.90
4518;DHT22;2271;49.464;11.070;2022-10-26T13:51:42;18.20;99.90
4518;DHT22;2271;49.464;11.070;2022-10-26T13:54:36;18.30;99.90
4518;DHT22;2271;49.464;11.070;2022-10-26T13:57:42;18.30;99.90
4518;DHT22;2271;49.464;11.070;2022-10-26T14:00:28;18.40;99.90
4518;DHT22;2271;49.464;11.070;2022-10-26T14:02:54;18.50;99.90
4518;DHT22;2271;49.464;11.070;2022-10-26T14:05:20;18.50;99.90
4518;DHT22;2271;49.464;11.070;2022-10-26T14:07:57;18.50;99.90
4518;DHT22;2271;49.464;11.070;2022-10-26T14:12:51;18.50;99.90
4518;DHT22;2271;49.464;11.070;2022-10-26T14:15:23;18.50;99.90
4518;DHT22;2271;49.464;11.070;2022-10-26T14:17:50;18.50;99.90
4518;DHT22;2271;49.464;11.070;2022-10-26T14:20:19;18.40;99.90
4518;DHT22;2271;49.464;11.070;2022-10-26T14:22:46;18.30;99.90
4518;DHT22;2271;49.464;11.070;2022-10-26T14:25:19;18.30;99.90
4518;DHT22;2271;49.464;11.070;2022-10-26T14:27:45;18.30;99.90
4518;DHT22;2271;49.464;11.070;2022-10-26T14:30:31;18.20;99.90
4518;DHT22;2271;49.464;11.070;2022-10-26T14:32:58;18.10;99.90
4518;DHT22;2271;49.464;11.070;2022-10-26T14:35:31;18.00;99.90
4518;DHT22;2271;49.464;11.070;2022-10-26T14:38:05;18.00;99.90
4518;DHT22;2271;49.464;11.070;2022-10-26T14:40:34;18.00;99.90
4518;DHT22;2271;49.464;11.070;2022-10-26T14:43:02;17.90;99.90
4518;DHT22;2271;49.464;11.070;2022-10-26T14:45:29;17.90;99.90
4518;DHT22;2271;49.464;11.070;2022-10-26T14:47:57;17.90;99.90
4518;DHT22;2271;49.464;11.070;2022-10-26T14:50:24;17.90;99.90
4518;DHT22;2271;49.464;11.070;2022-10-26T14:53:01;17.80;99.90
4518;DHT22;2271;49.464;11.070;2022-10-26T14:55:27;17.80;99.90
4518;DHT22;2271;49.464;11.070;2022-10-26T14:58:06;17.70;99.90
4518;DHT22;2271;49.464;11.070;2022-10-26T15:00:33;17.70;99.90
4518;DHT22;2271;49.464;11.070;2022-10-26T15:02:59;17.60;99.90
4518;DHT22;2271;49.464;11.070;2022-10-26T15:05:27;17.60;99.90
4518;DHT22;2271;49.464;11.070;2022-10-26T15:07:54;17.50;99.90
4518;DHT22;2271;49.464;11.070;2022-10-26T15:13:17;17.50;99.90
4518;DHT22;2271;49.464;11.070;2022-10-26T15:15:43;17.40;99.90
4518;DHT22;2271;49.464;11.070;2022-10-26T15:18:27;17.50;99.90
4518;DHT22;2271;49.464;11.070;2022-10-26T15:20:54;17.40;99.90
4518;DHT22;2271;49.464;11.070;2022-10-26T15:23:21;17.30;99.90
4518;DHT22;2271;49.464;11.070;2022-10-26T15:25:55;17.30;99.90
4518;DHT22;2271;49.464;11.070;2022-10-26T15:33:35;17.30;99.90
4518;DHT22;2271;49.464;11.070;2022-10-26T15:38:36;17.20;99.90
4518;DHT22;2271;49.464;11.070;2022-10-26T15:43:41;17.30;99.90
4518;DHT22;2271;49.464;11.070;2022-10-26T15:46:07;17.20;99.90
4518;DHT22;2271;49.464;11.070;2022-10-26T15:48:32;17.20;99.90
4518;DHT22;2271;49.464;11.070;2022-10-26T15:51:00;17.20;99.90
4518;DHT22;2271;49.464;11.070;2022-10-26T15:53:26;17.20;99.90
4518;DHT22;2271;49.464;11.070;2022-10-26T15:55:53;17.20;99.90
4518;DHT22;2271;49.464;11.070;2022-10-26T15:58:19;17.10;99.90
4518;DHT22;2271;49.464;11.070;2022-10-26T16:00:45;17.10;99.90
4518;DHT22;2271;49.464;11.070;2022-10-26T16:03:31;17.00;99.90
4518;DHT22;2271;49.464;11.070;2022-10-26T16:05:59;17.10;99.90
4518;DHT22;2271;49.464;11.070;2022-10-26T16:08:29;17.00;99.90
4518;DHT22;2271;49.464;11.070;2022-10-26T16:10:56;17.00;99.90
4518;DHT22;2271;49.464;11.070;2022-10-26T16:13:21;17.00;99.90
4518;DHT22;2271;49.464;11.070;2022-10-26T16:15:47;17.00;99.90
4518;DHT22;2271;49.464;11.070;2022-10-26T16:18:13;17.00;99.90
4518;DHT22;2271;49.464;11.070;2022-10-26T16:20:39;17.00;99.90
4518;DHT22;2271;49.464;11.070;2022-10-26T16:23:05;17.00;99.90
4518;DHT22;2271;49.464;11.070;2022-10-26T16:25:39;17.00;99.90
4518;DHT22;2271;49.464;11.070;2022-10-26T16:28:06;17.00;99.90
4518;DHT22;2271;49.464;11.070;2022-10-26T16:30:31;16.90;99.90
4518;DHT22;2271;49.464;11.070;2022-10-26T16:32:57;16.90;99.90
4518;DHT22;2271;49.464;11.070;2022-10-26T16:35:23;16.90;99.90
4518;DHT22;2271;49.464;11.070;2022-10-26T16:37:48;16.90;99.90
4518;DHT22;2271;49.464;11.070;2022-10-26T16:40:14;16.90;99.90
4518;DHT22;2271;49.464;11.070;2022-10-26T16:42:40;16.90;99.90
4518;DHT22;2271;49.464;11.070;2022-10-26T16:45:09;16.90;99.90
4518;DHT22;2271;49.464;11.070;2022-10-26T16:47:35;16.90;99.90
4518;DHT22;2271;49.464;11.070;2022-10-26T16:50:04;16.90;99.90
4518;DHT22;2271;49.464;11.070;2022-10-26T16:52:29;16.90;99.90
4518;DHT22;2271;49.464;11.070;2022-10-26T16:54:55;16.80;99.90
4518;DHT22;2271;49.464;11.070;2022-10-26T16:57:21;16.80;99.90
4518;DHT22;2271;49.464;11.070;2022-10-26T16:59:46;16.80;99.90
4518;DHT22;2271;49.464;11.070;2022-10-26T17:02:13;16.80;99.90
4518;DHT22;2271;49.464;11.070;2022-10-26T17:04:39;16.80;99.90
4518;DHT22;2271;49.464;11.070;2022-10-26T17:07:04;16.70;99.90
4518;DHT22;2271;49.464;11.070;2022-10-26T17:09:30;16.70;99.90
4518;DHT22;2271;49.464;11.070;2022-10-26T17:11:56;16.70;99.90
4518;DHT22;2271;49.464;11.070;2022-10-26T17:14:21;16.80;99.90
4518;DHT22;2271;49.464;11.070;2022-10-26T17:16:47;16.70;99.90
4518;DHT22;2271;49.464;11.070;2022-10-26T17:19:13;16.70;99.90
4518;DHT22;2271;49.464;11.070;2022-10-26T17:21:38;16.70;99.90
4518;DHT22;2271;49.464;11.070;2022-10-26T17:24:04;16.70;99.90
4518;DHT22;2271;49.464;11.070;2022-10-26T17:26:31;16.70;99.90
4518;DHT22;2271;49.464;11.070;2022-10-26T17:28:57;16.70;99.90
4518;DHT22;2271;49.464;11.070;2022-10-26T17:31:24;16.60;99.90
4518;DHT22;2271;49.464;11.070;2022-10-26T17:33:50;16.60;99.90
4518;DHT22;2271;49.464;11.070;2022-10-26T17:36:18;16.60;99.90
4518;DHT22;2271;49.464;11.070;2022-10-26T17:38:49;16.60;99.90
4518;DHT22;2271;49.464;11.070;2022-10-26T17:41:17;16.60;99.90
4518;DHT22;2271;49.464;11.070;2022-10-26T17:43:43;16.60;99.90
4518;DHT22;2271;49.464;11.070;2022-10-26T17:46:15;16.50;99.90
4518;DHT22;2271;49.464;11.070;2022-10-26T17:48:41;16.50;99.90
4518;DHT22;2271;49.464;11.070;2022-10-26T17:51:10;16.50;99.90
4518;DHT22;2271;49.464;11.070;2022-10-26T17:53:36;16.40;99.90
4518;DHT22;2271;49.464;11.070;2022-10-26T17:56:15;16.40;99.90
4518;DHT22;2271;49.464;11.070;2022-10-26T17:58:41;16.40;99.90
4518;DHT22;2271;49.464;11.070;2022-10-26T18:01:09;16.40;99.90
4518;DHT22;2271;49.464;11.070;2022-10-26T18:03:36;16.30;99.90
4518;DHT22;2271;49.464;11.070;2022-10-26T18:06:02;16.30;99.90
4518;DHT22;2271;49.464;11.070;2022-10-26T18:08:32;16.30;99.90
4518;DHT22;2271;49.464;11.070;2022-10-26T18:10:58;16.30;99.90
4518;DHT22;2271;49.464;11.070;2022-10-26T18:13:27;16.30;99.90
4518;DHT22;2271;49.464;11.070;2022-10-26T18:15:53;16.20;99.90
4518;DHT22;2271;49.464;11.070;2022-10-26T18:18:19;16.20;99.90
4518;DHT22;2271;49.464;11.070;2022-10-26T18:20:44;16.20;99.90
4518;DHT22;2271;49.464;11.070;2022-10-26T18:23:10;16.20;99.90
4518;DHT22;2271;49.464;11.070;2022-10-26T18:25:36;16.10;99.90